createdAt,value
2023-01-30T00:02:26.655Z,75.60
2023-01-30T00:07:31.008Z,75.80
2023-01-30T00:12:36.240Z,76.20
2023-01-30T00:17:41.941Z,76.30
2023-01-30T00:23:00.144Z,77.80
2023-01-30T00:28:05.080Z,79.10
2023-01-30T00:33:10.812Z,77.60
2023-01-30T00:38:15.076Z,77.30
2023-01-30T00:43:39.456Z,76.90
2023-01-30T00:48:43.912Z,77.20
2023-01-30T00:53:47.305Z,78.20
2023-01-30T00:58:50.441Z,77.40
2023-01-30T01:03:54.479Z,76.60
2023-01-30T01:08:58.442Z,76.40
2023-01-30T01:14:04.946Z,76.70
2023-01-30T01:19:09.326Z,76.50
2023-01-30T01:24:15.360Z,76.50
2023-01-30T01:29:19.937Z,76.60
2023-01-30T01:34:24.389Z,76.40
2023-01-30T01:39:47.209Z,76.50
2023-01-30T01:45:19.743Z,76.50
2023-01-30T01:50:31.677Z,76.80
2023-01-30T01:55:37.163Z,76.90
2023-01-30T02:00:42.372Z,77.00
2023-01-30T02:05:50.593Z,77.00
2023-01-30T02:11:07.700Z,76.90
2023-01-30T02:16:14.242Z,77.00
2023-01-30T02:21:52.992Z,77.10
2023-01-30T02:27:15.488Z,77.30
2023-01-30T02:32:33.794Z,77.30
2023-01-30T02:38:00.295Z,77.20
2023-01-30T02:43:23.604Z,77.20
2023-01-30T02:48:53.895Z,77.40
2023-01-30T02:53:59.623Z,78.20
2023-01-30T02:59:07.110Z,78.10
2023-01-30T03:04:55.745Z,78.20
2023-01-30T03:10:38.379Z,77.90
2023-01-30T03:15:57.087Z,78.30
2023-01-30T03:21:06.662Z,78.20
2023-01-30T03:26:18.261Z,78.70
2023-01-30T03:31:22.641Z,79.10
2023-01-30T03:36:27.535Z,78.60
2023-01-30T03:41:33.925Z,78.10
2023-01-30T03:46:38.664Z,77.90
2023-01-30T03:51:42.463Z,78.00
2023-01-30T03:56:47.141Z,78.40
2023-01-30T04:01:51.579Z,78.60
2023-01-30T04:06:59.638Z,78.60
2023-01-30T04:12:04.960Z,78.30
2023-01-30T04:17:15.523Z,79.70
2023-01-30T04:22:34.209Z,78.70
2023-01-30T04:27:37.754Z,78.60
2023-01-30T04:32:52.447Z,79.00
2023-01-30T04:37:57.367Z,79.80
2023-01-30T04:43:01.209Z,80.40
2023-01-30T04:48:26.699Z,80.00
2023-01-30T04:53:35.581Z,79.40
2023-01-30T04:58:39.646Z,78.80
2023-01-30T05:03:45.063Z,78.50
2023-01-30T05:08:50.011Z,78.70
2023-01-30T05:13:59.699Z,78.70
2023-01-30T05:19:03.872Z,78.70
2023-01-30T05:24:07.962Z,78.70
2023-01-30T05:29:11.831Z,78.60
2023-01-30T05:34:15.648Z,78.50
2023-01-30T05:39:20.839Z,78.60
2023-01-30T05:44:24.593Z,78.70
2023-01-30T05:49:29.581Z,79.40
2023-01-30T05:54:34.811Z,79.10
2023-01-30T05:59:40.225Z,78.70
2023-01-30T06:04:44.240Z,78.60
2023-01-30T06:09:48.072Z,78.80
2023-01-30T06:14:53.779Z,79.00
2023-01-30T06:19:58.728Z,78.70
2023-01-30T06:25:03.945Z,78.80
2023-01-30T06:30:08.904Z,78.90
2023-01-30T06:35:14.469Z,80.20
2023-01-30T06:40:18.658Z,81.00
2023-01-30T06:45:22.472Z,80.20
2023-01-30T06:50:28.162Z,79.60
2023-01-30T06:55:35.096Z,79.80
2023-01-30T07:00:40.851Z,79.70
2023-01-30T07:05:47.471Z,80.20
2023-01-30T07:10:51.467Z,79.90
2023-01-30T07:15:56.402Z,79.40
2023-01-30T07:21:01.449Z,80.60
2023-01-30T07:26:06.799Z,83.30
2023-01-30T07:31:12.539Z,82.60
2023-01-30T07:36:17.329Z,81.60
2023-01-30T07:41:22.057Z,81.90
2023-01-30T07:46:26.438Z,81.10
2023-01-30T07:51:30.279Z,80.80
2023-01-30T07:56:35.423Z,79.60
2023-01-30T08:01:40.236Z,80.20
2023-01-30T08:06:44.538Z,80.30
2023-01-30T08:11:49.241Z,79.80
2023-01-30T08:16:53.055Z,79.90
2023-01-30T08:21:59.440Z,80.10
2023-01-30T08:27:03.518Z,80.40
2023-01-30T08:32:06.947Z,80.20
2023-01-30T08:37:11.974Z,80.00
2023-01-30T08:42:15.877Z,79.40
2023-01-30T08:47:19.769Z,78.80
2023-01-30T08:52:24.419Z,78.80
2023-01-30T08:57:28.190Z,78.00
2023-01-30T09:02:32.558Z,77.80
2023-01-30T09:07:37.338Z,78.10
2023-01-30T09:12:41.804Z,77.90
2023-01-30T09:17:46.938Z,78.00
2023-01-30T09:22:51.973Z,78.30
2023-01-30T09:27:56.314Z,77.60
2023-01-30T09:33:00.993Z,76.90
2023-01-30T09:38:05.777Z,77.20
2023-01-30T09:43:30.288Z,77.10
2023-01-30T09:48:44.799Z,76.40
2023-01-30T09:54:14.446Z,76.20
2023-01-30T09:59:26.398Z,75.60
2023-01-30T10:04:35.589Z,75.40
2023-01-30T10:09:56.423Z,73.90
2023-01-30T10:15:42.636Z,74.20
2023-01-30T10:21:16.081Z,74.00
2023-01-30T10:26:26.673Z,73.30
2023-01-30T10:31:41.382Z,72.50
2023-01-30T10:37:10.846Z,71.80
2023-01-30T10:42:22.572Z,71.90
2023-01-30T10:47:51.571Z,71.00
2023-01-30T10:53:17.463Z,71.20
2023-01-30T10:58:26.631Z,71.10
2023-01-30T11:04:12.865Z,71.50
2023-01-30T11:09:16.648Z,71.20
2023-01-30T11:14:20.909Z,70.60
2023-01-30T11:19:33.571Z,69.90
2023-01-30T11:24:45.482Z,69.50
2023-01-30T11:29:50.492Z,68.80
2023-01-30T11:35:09.920Z,68.70
2023-01-30T11:40:27.025Z,68.50
2023-01-30T11:45:39.867Z,68.30
2023-01-30T11:50:49.688Z,66.80
2023-01-30T11:56:05.439Z,67.90
2023-01-30T12:01:12.295Z,67.20
2023-01-30T12:06:34.558Z,66.30
2023-01-30T12:11:40.760Z,66.60
2023-01-30T12:17:12.835Z,64.70
2023-01-30T12:22:32.413Z,65.00
2023-01-30T12:27:45.035Z,65.40
2023-01-30T12:32:49.213Z,67.10
2023-01-30T12:38:25.401Z,66.00
2023-01-30T12:43:57.056Z,66.10
2023-01-30T12:49:15.554Z,66.50
2023-01-30T12:54:43.310Z,64.90
2023-01-30T13:00:19.846Z,69.10
2023-01-30T13:05:43.463Z,69.20
2023-01-30T13:11:12.323Z,70.90
2023-01-30T13:16:45.147Z,72.30
2023-01-30T13:22:26.621Z,70.80
2023-01-30T13:27:37.099Z,66.70
2023-01-30T13:32:53.241Z,64.70
2023-01-30T13:37:58.006Z,61.60
2023-01-30T13:43:14.246Z,56.80
2023-01-30T13:48:31.911Z,55.60
2023-01-30T13:53:39.928Z,51.20
2023-01-30T13:58:56.040Z,51.20
2023-01-30T14:04:40.129Z,49.20
2023-01-30T14:10:05.716Z,46.00
2023-01-30T14:15:15.825Z,50.30
2023-01-30T14:20:23.065Z,51.00
2023-01-30T14:25:26.859Z,52.40
2023-01-30T14:30:39.365Z,54.30
2023-01-30T14:35:43.799Z,55.20
2023-01-30T14:41:00.108Z,56.50
2023-01-30T14:46:18.398Z,56.50
2023-01-30T14:51:48.013Z,56.20
2023-01-30T14:57:06.621Z,56.40
2023-01-30T15:02:14.370Z,57.10
2023-01-30T15:07:24.599Z,57.40
2023-01-30T15:12:28.712Z,57.90
2023-01-30T15:18:08.433Z,58.00
2023-01-30T15:23:43.696Z,58.00
2023-01-30T15:28:58.078Z,57.80
2023-01-30T15:34:02.337Z,58.60
2023-01-30T15:39:18.619Z,58.70
2023-01-30T15:45:03.536Z,59.00
2023-01-30T15:50:09.895Z,59.90
2023-01-30T15:55:24.917Z,60.00
2023-01-30T16:00:53.571Z,59.80
2023-01-30T16:05:58.454Z,60.20
2023-01-30T16:11:03.731Z,60.80
2023-01-30T16:16:13.717Z,61.60
2023-01-30T16:21:26.903Z,62.90
2023-01-30T16:26:34.566Z,62.70
2023-01-30T16:31:40.237Z,63.40
2023-01-30T16:36:47.681Z,64.20
2023-01-30T16:41:59.637Z,65.10
2023-01-30T16:47:04.968Z,64.90
2023-01-30T16:52:51.143Z,65.60
2023-01-30T16:58:02.127Z,65.30
2023-01-30T17:03:19.181Z,66.60
2023-01-30T17:08:42.901Z,67.50
2023-01-30T17:14:06.646Z,67.10
2023-01-30T17:19:10.656Z,67.60
2023-01-30T17:24:17.274Z,69.30
2023-01-30T17:29:41.437Z,68.50
2023-01-30T17:34:46.717Z,68.30
2023-01-30T17:39:50.946Z,69.50
2023-01-30T17:45:35.554Z,70.30
2023-01-30T17:50:40.028Z,70.00
2023-01-30T17:56:04.121Z,70.50
2023-01-30T18:01:09.068Z,71.10
2023-01-30T18:06:16.333Z,70.70
2023-01-30T18:11:24.676Z,70.40
2023-01-30T18:16:33.675Z,71.30
2023-01-30T18:21:40.065Z,72.80
2023-01-30T18:26:44.874Z,72.40
2023-01-30T18:31:48.771Z,72.10
2023-01-30T18:36:53.634Z,72.30
2023-01-30T18:41:57.945Z,72.10
2023-01-30T18:47:03.816Z,72.70
2023-01-30T18:52:08.098Z,71.60
2023-01-30T18:57:12.526Z,72.10
2023-01-30T19:02:16.822Z,72.20
2023-01-30T19:07:21.037Z,71.60
2023-01-30T19:12:43.620Z,73.50
2023-01-30T19:17:48.405Z,73.30
2023-01-30T19:22:55.738Z,73.10
2023-01-30T19:27:59.104Z,72.90
2023-01-30T19:33:03.850Z,73.30
2023-01-30T19:38:07.909Z,73.30
2023-01-30T19:43:13.434Z,73.50
2023-01-30T19:48:18.012Z,73.40
2023-01-30T19:53:21.442Z,73.80
2023-01-30T19:58:25.428Z,73.80
2023-01-30T20:03:29.340Z,74.00
2023-01-30T20:08:34.957Z,74.80
2023-01-30T20:13:42.553Z,74.50
2023-01-30T20:18:48.399Z,75.30
2023-01-30T20:23:53.494Z,75.70
2023-01-30T20:28:58.589Z,76.50
2023-01-30T20:34:05.683Z,75.00
2023-01-30T20:39:09.561Z,75.20
2023-01-30T20:44:14.608Z,76.30
2023-01-30T20:49:21.044Z,77.20
2023-01-30T20:54:26.012Z,76.40
2023-01-30T20:59:30.361Z,75.70
2023-01-30T21:04:34.500Z,76.60
2023-01-30T21:09:39.479Z,76.60
2023-01-30T21:14:43.544Z,76.70
2023-01-30T21:19:49.044Z,76.20
2023-01-30T21:24:53.822Z,76.30
2023-01-30T21:29:58.869Z,76.90
2023-01-30T21:35:03.380Z,77.60
2023-01-30T21:40:28.147Z,77.10
2023-01-30T21:45:32.254Z,77.60
2023-01-30T21:50:36.482Z,76.30
2023-01-30T21:55:40.580Z,76.90
2023-01-30T22:00:44.556Z,77.70
2023-01-30T22:05:48.880Z,77.60
2023-01-30T22:10:53.086Z,78.10
2023-01-30T22:16:03.152Z,78.00
2023-01-30T22:21:16.061Z,77.90
2023-01-30T22:26:23.217Z,77.90
